Time;durP1;ratioP1;P1;durP2;ratioP2;P2;SDS_P1;SDS_P2;PMS_P1;PMS_P2;Temp;Humidity;BMP_temperature;BMP_pressure;BME280_temperature;BME280_humidity;BME280_pressure;Samples;Min_cycle;Max_cycle;Signal;HPM_P1;HPM_P2
2022/02/04 00:06:50;;;;;;;10.97;9.00;;;6.80;99.90;;;7.39;100.00;-19978.44;5045772;28;20263;-62
2022/02/04 00:09:38;;;;;;;11.87;9.30;;;6.70;99.90;;;7.26;100.00;-19974.19;5050823;28;20236;-61
2022/02/04 00:20:32;;;;;;;11.47;9.30;;;6.50;99.90;;;7.10;100.00;-19968.53;5028603;28;20308;-68
2022/02/04 00:23:09;;;;;;;12.57;9.17;;;6.50;99.90;;;7.06;100.00;-19967.34;5031244;28;20245;-61
2022/02/04 00:25:50;;;;;;;14.50;11.33;;;6.40;99.90;;;7.03;100.00;-19966.31;5041326;28;20311;-63
2022/02/04 00:28:27;;;;;;;15.37;11.50;;;6.40;99.90;;;7.30;100.00;-19975.38;5050510;28;20312;-62
2022/02/04 00:31:11;;;;;;;16.50;13.10;;;6.40;99.90;;;7.40;100.00;-19978.97;5050585;28;20278;-63
2022/02/04 00:33:42;;;;;;;19.60;15.30;;;6.50;99.90;;;7.26;100.00;-19974.00;5050261;28;20279;-63
2022/02/04 00:36:16;;;;;;;17.17;14.43;;;6.40;99.90;;;7.28;100.00;-19974.84;5050766;28;20248;-63
2022/02/04 00:38:49;;;;;;;16.87;14.77;;;6.50;99.90;;;7.35;100.00;-19977.25;5050665;28;20240;-63
2022/02/04 00:41:21;;;;;;;16.67;14.03;;;6.50;99.90;;;7.29;100.00;-19975.03;5051036;28;20209;-62
2022/02/04 00:43:51;;;;;;;16.43;13.40;;;6.50;99.90;;;7.50;100.00;-19982.19;5050164;28;20764;-63
2022/02/04 00:46:25;;;;;;;15.67;13.73;;;6.50;99.90;;;7.31;100.00;-19975.88;5050493;28;20286;-63
2022/02/04 00:49:18;;;;;;;15.80;12.77;;;6.50;99.90;;;7.28;100.00;-19974.69;5052475;28;20327;-63
2022/02/04 00:51:57;;;;;;;18.13;13.10;;;6.50;99.90;;;7.31;100.00;-19975.88;5054320;28;20225;-62
2022/02/04 00:54:39;;;;;;;17.27;13.67;;;6.50;99.90;;;7.33;100.00;-19976.41;5054214;28;20754;-61
2022/02/04 00:57:15;;;;;;;17.47;13.60;;;6.50;99.90;;;7.26;100.00;-19974.00;5053874;28;20264;-61
2022/02/04 01:13:40;;;;;;;15.90;11.50;;;6.50;99.90;;;7.44;100.00;-19980.16;5053695;28;20252;-67
2022/02/04 01:27:14;;;;;;;10.07;7.70;;;6.40;99.90;;;7.09;100.00;-19968.38;5053813;28;20259;-69
2022/02/04 01:29:53;;;;;;;8.00;7.07;;;6.30;99.90;;;7.16;100.00;-19970.59;5053444;28;20693;-68
2022/02/04 01:32:22;;;;;;;9.37;6.90;;;6.30;99.90;;;7.14;100.00;-19969.91;5054364;28;20240;-69
2022/02/04 01:34:50;;;;;;;10.23;7.30;;;6.30;99.90;;;7.07;100.00;-19967.50;5053158;28;20251;-69
2022/02/04 01:37:19;;;;;;;6.97;6.30;;;6.30;99.90;;;7.07;100.00;-19967.69;5053397;28;20388;-68
2022/02/04 01:39:47;;;;;;;8.90;6.87;;;6.30;99.90;;;7.09;100.00;-19968.19;5053187;28;20268;-68
2022/02/04 01:42:16;;;;;;;8.07;7.10;;;6.30;99.90;;;7.20;100.00;-19972.13;5053142;28;20229;-68
2022/02/04 01:44:45;;;;;;;10.17;7.27;;;6.30;99.90;;;7.24;100.00;-19973.31;5053035;28;20279;-69
2022/02/04 01:47:14;;;;;;;7.60;6.23;;;6.30;99.90;;;7.11;100.00;-19968.88;5054023;28;20255;-68
2022/02/04 01:49:42;;;;;;;9.10;7.17;;;6.30;99.90;;;7.02;100.00;-19965.97;5053003;28;20308;-69
2022/02/04 01:52:12;;;;;;;8.67;7.77;;;6.20;99.90;;;6.95;100.00;-19963.56;5053371;28;20652;-68
2022/02/04 01:54:41;;;;;;;9.27;7.67;;;6.10;99.90;;;6.96;100.00;-19963.75;5053142;28;20278;-68
2022/02/04 01:57:09;;;;;;;8.97;7.00;;;6.10;99.90;;;6.83;100.00;-19959.31;5053624;28;20282;-69
2022/02/04 01:59:38;;;;;;;7.37;6.40;;;6.10;99.90;;;6.83;100.00;-19959.47;5052800;28;20228;-67
2022/02/04 02:02:08;;;;;;;7.80;6.90;;;6.10;99.90;;;6.76;100.00;-19956.91;5053473;28;20197;-68
2022/02/04 02:04:36;;;;;;;7.67;6.83;;;6.00;99.90;;;6.72;100.00;-19955.72;5052633;28;20792;-67
2022/02/04 02:07:11;;;;;;;8.13;7.33;;;6.00;99.90;;;7.07;100.00;-19967.69;5053225;28;20229;-68
2022/02/04 02:09:49;;;;;;;9.03;7.23;;;6.00;99.90;;;6.80;100.00;-19958.28;5052952;28;20229;-69
2022/02/04 02:12:19;;;;;;;9.33;7.50;;;6.00;99.90;;;6.93;100.00;-19962.91;5052828;28;20644;-68
2022/02/04 02:14:58;;;;;;;9.33;7.63;;;6.00;99.90;;;6.88;100.00;-19961.00;5052577;28;20210;-68
2022/02/04 02:34:35;;;;;;;9.53;6.63;;;6.00;99.90;;;6.75;100.00;-19956.75;5052499;28;20252;-68
2022/02/04 02:45:47;;;;;;;7.43;6.27;;;6.00;99.90;;;6.69;100.00;-19954.53;5017613;28;20249;-68
2022/02/04 02:48:33;;;;;;;7.80;6.10;;;5.90;99.90;;;6.72;100.00;-19955.72;5028294;28;20605;-67
2022/02/04 02:54:05;;;;;;;6.20;5.57;;;5.90;99.90;;;6.79;100.00;-19957.94;5017783;28;20205;-62
2022/02/04 02:59:19;;;;;;;6.97;6.27;;;6.00;99.90;;;6.94;100.00;-19963.25;5024567;28;20638;-62
2022/02/04 03:01:50;;;;;;;7.07;6.37;;;6.00;99.90;;;6.87;100.00;-19960.66;5029375;28;20730;-62
2022/02/04 03:04:19;;;;;;;7.30;6.50;;;6.00;99.90;;;6.73;100.00;-19955.88;5027888;28;20322;-61
2022/02/04 03:06:49;;;;;;;8.07;5.73;;;6.00;99.90;;;6.83;100.00;-19959.31;5027924;28;20226;-61
2022/02/04 03:09:18;;;;;;;6.77;6.10;;;6.00;99.90;;;6.70;100.00;-19954.84;5028246;28;20316;-63
2022/02/04 03:11:47;;;;;;;7.07;5.47;;;6.00;99.90;;;6.74;100.00;-19956.41;5008103;28;20707;-68
2022/02/04 03:14:15;;;;;;;6.03;5.40;;;6.00;99.90;;;6.90;100.00;-19961.88;5028120;28;20610;-69
2022/02/04 03:16:45;;;;;;;5.77;5.10;;;6.00;99.90;;;6.78;100.00;-19957.75;5047534;28;20260;-68
2022/02/04 03:19:14;;;;;;;6.57;5.60;;;6.00;99.90;;;6.86;100.00;-19960.50;5041213;28;20222;-67
2022/02/04 03:21:45;;;;;;;6.13;5.27;;;6.00;99.90;;;7.09;100.00;-19968.19;5047384;28;20252;-68
2022/02/04 03:24:17;;;;;;;6.23;5.47;;;6.10;99.90;;;6.97;100.00;-19964.09;5047573;28;20258;-67
2022/02/04 03:26:50;;;;;;;6.10;5.33;;;6.10;99.90;;;7.08;100.00;-19968.03;5047081;28;20190;-69
2022/02/04 03:29:24;;;;;;;6.10;4.90;;;6.20;99.90;;;7.04;100.00;-19966.66;5048331;28;20209;-69
2022/02/04 03:31:57;;;;;;;5.97;5.37;;;6.20;99.90;;;7.04;100.00;-19966.66;5047259;28;20312;-68
2022/02/04 03:34:25;;;;;;;6.00;5.20;;;6.20;99.90;;;6.92;100.00;-19962.56;5047002;28;20258;-68
2022/02/04 03:36:53;;;;;;;6.27;5.50;;;6.10;99.90;;;6.95;100.00;-19963.41;5047092;28;20312;-68
2022/02/04 03:39:21;;;;;;;6.00;5.27;;;6.10;99.90;;;6.86;100.00;-19960.34;5046972;28;20232;-67
2022/02/04 03:41:51;;;;;;;7.77;6.40;;;6.10;99.90;;;6.88;100.00;-19961.00;5046901;28;20300;-68
2022/02/04 03:44:19;;;;;;;7.67;6.00;;;6.10;99.90;;;7.03;100.00;-19966.31;5047850;28;20216;-68
2022/02/04 03:46:48;;;;;;;7.27;5.90;;;6.10;99.90;;;6.89;100.00;-19961.34;5046936;28;20259;-69
2022/02/04 03:49:16;;;;;;;7.03;5.90;;;6.10;99.90;;;6.98;100.00;-19964.44;5044713;28;20309;-68
2022/02/04 03:51:44;;;;;;;8.27;6.17;;;6.10;99.90;;;7.05;100.00;-19967.00;5033659;28;20256;-68
2022/02/04 03:54:12;;;;;;;7.20;6.00;;;6.10;99.90;;;6.94;100.00;-19963.25;5033789;28;20225;-69
2022/02/04 03:56:40;;;;;;;7.30;5.97;;;6.10;99.90;;;6.99;100.00;-19964.78;5033403;28;20206;-68
2022/02/04 03:59:09;;;;;;;7.20;5.97;;;6.10;99.90;;;7.00;100.00;-19965.28;5034265;28;20226;-68
2022/02/04 04:01:37;;;;;;;7.63;6.30;;;6.10;99.90;;;7.05;100.00;-19966.81;5033511;28;20252;-69
2022/02/04 04:04:05;;;;;;;6.37;5.67;;;6.10;99.90;;;7.03;100.00;-19966.31;5033587;28;20245;-68
2022/02/04 04:06:33;;;;;;;7.77;6.03;;;6.10;99.90;;;6.86;100.00;-19960.50;5033366;28;20222;-67
2022/02/04 04:09:02;;;;;;;8.80;5.90;;;6.10;99.90;;;7.05;100.00;-19967.00;5033646;28;20272;-69
2022/02/04 04:11:30;;;;;;;8.07;6.70;;;6.10;99.90;;;6.89;100.00;-19961.34;5051760;28;20388;-68
2022/02/04 04:13:58;;;;;;;6.73;6.03;;;6.10;99.90;;;6.89;100.00;-19961.34;5046173;28;20226;-68
2022/02/04 04:16:27;;;;;;;6.40;5.70;;;6.10;99.90;;;7.09;100.00;-19968.19;5033154;28;20284;-68
2022/02/04 04:18:56;;;;;;;6.80;6.10;;;6.10;99.90;;;6.99;100.00;-19964.94;5033125;28;20258;-69
2022/02/04 04:21:24;;;;;;;7.70;6.90;;;6.10;99.90;;;7.00;100.00;-19965.28;5033169;28;20815;-69
2022/02/04 04:23:52;;;;;;;8.60;6.00;;;6.10;99.90;;;6.82;100.00;-19959.13;5033967;28;20202;-69
2022/02/04 04:26:20;;;;;;;7.40;6.70;;;6.00;99.90;;;6.90;100.00;-19961.88;5035417;28;20312;-70
2022/02/04 04:28:48;;;;;;;6.43;5.50;;;6.00;99.90;;;6.85;100.00;-19960.00;5034224;28;20241;-68
2022/02/04 04:31:18;;;;;;;6.63;5.53;;;5.90;99.90;;;6.92;100.00;-19962.38;5034412;28;20269;-62
2022/02/04 04:33:48;;;;;;;7.03;6.17;;;6.00;99.90;;;6.83;100.00;-19959.47;5034060;28;20267;-62
2022/02/04 04:36:18;;;;;;;5.53;4.97;;;6.00;99.90;;;6.71;100.00;-19955.22;5033987;28;20765;-62
2022/02/04 04:38:51;;;;;;;6.17;5.03;;;5.90;99.90;;;6.66;100.00;-19953.66;5034065;28;20285;-62
2022/02/04 04:41:29;;;;;;;6.77;5.33;;;5.90;99.90;;;6.83;100.00;-19959.47;5033933;28;20221;-62
2022/02/04 04:44:32;;;;;;;5.97;5.23;;;5.90;99.90;;;6.93;100.00;-19962.91;5034278;28;20304;-61
2022/02/04 05:26:19;;;;;;;7.83;6.47;;;5.80;99.90;;;6.67;100.00;-19954.00;5012772;28;20230;-63
2022/02/04 05:28:58;;;;;;;7.43;6.47;;;5.90;99.90;;;6.75;100.00;-19956.75;5012661;28;20238;-62
2022/02/04 05:31:26;;;;;;;8.00;6.20;;;5.80;99.90;;;6.58;100.00;-19950.94;5012561;28;20314;-65
2022/02/04 05:33:54;;;;;;;8.53;6.83;;;5.80;99.90;;;6.68;100.00;-19954.34;5003716;28;20231;-63
2022/02/04 05:36:23;;;;;;;9.07;6.10;;;5.80;99.90;;;6.92;100.00;-19962.38;4993111;28;20726;-63
2022/02/04 05:38:54;;;;;;;7.10;5.83;;;5.90;99.90;;;6.77;100.00;-19957.44;4993180;28;20301;-61
2022/02/04 05:41:28;;;;;;;6.70;5.90;;;5.90;99.90;;;6.69;100.00;-19954.69;4993427;28;20203;-63
2022/02/04 05:43:58;;;;;;;6.73;5.60;;;5.90;99.90;;;6.77;100.00;-19957.44;4992387;28;20267;-67
2022/02/04 05:46:30;;;;;;;8.53;6.03;;;5.90;99.90;;;6.81;100.00;-19958.78;4994047;28;20230;-67
2022/02/04 05:48:59;;;;;;;7.27;5.90;;;5.90;99.90;;;6.83;100.00;-19959.47;4994068;28;20266;-68
2022/02/04 05:51:39;;;;;;;7.13;6.13;;;5.90;99.90;;;6.77;100.00;-19957.25;4994154;28;20328;-66
2022/02/04 05:54:15;;;;;;;7.87;6.40;;;5.90;99.90;;;6.90;100.00;-19961.69;4992459;28;20226;-67
2022/02/04 05:56:53;;;;;;;8.47;6.70;;;5.90;99.90;;;6.69;100.00;-19954.69;4992319;28;20215;-68
2022/02/04 05:59:29;;;;;;;8.20;6.07;;;5.90;99.90;;;6.81;100.00;-19958.63;5002667;28;20317;-69
2022/02/04 06:02:06;;;;;;;7.63;6.33;;;5.90;99.90;;;6.76;100.00;-19957.09;5032890;28;20748;-68
2022/02/04 06:04:47;;;;;;;8.07;7.23;;;5.90;99.90;;;6.54;100.00;-19949.56;5050947;28;20258;-66
2022/02/04 06:07:29;;;;;;;7.70;6.57;;;5.90;99.90;;;6.75;100.00;-19956.75;5037693;28;20256;-68
2022/02/04 06:23:54;;;;;;;9.03;7.17;;;5.70;99.90;;;6.46;100.00;-19946.66;5031122;28;20240;-69
2022/02/04 06:26:23;;;;;;;8.43;7.27;;;5.80;99.90;;;6.48;100.00;-19947.50;5031536;28;20202;-67
2022/02/04 06:28:52;;;;;;;8.30;6.93;;;5.80;99.90;;;6.72;100.00;-19955.72;5030630;28;20226;-68
2022/02/04 06:31:23;;;;;;;9.17;6.87;;;5.80;99.90;;;6.69;100.00;-19954.69;5031018;28;20229;-68
2022/02/04 06:33:52;;;;;;;10.60;7.30;;;5.90;99.90;;;6.61;100.00;-19951.97;5030713;28;20260;-66
2022/02/04 06:36:20;;;;;;;9.30;7.37;;;5.90;99.90;;;6.64;100.00;-19952.97;5030968;28;20624;-68
2022/02/04 06:38:48;;;;;;;9.27;7.23;;;5.90;99.90;;;6.61;100.00;-19951.97;5030721;28;20268;-70
2022/02/04 06:41:16;;;;;;;7.90;6.97;;;5.80;99.90;;;6.45;100.00;-19946.31;5031164;28;20248;-67
2022/02/04 06:43:45;;;;;;;8.63;7.23;;;5.80;99.90;;;6.41;100.00;-19944.94;5030895;28;20226;-66
2022/02/04 06:46:14;;;;;;;9.63;7.60;;;5.80;99.90;;;6.49;100.00;-19947.84;5030987;28;20251;-68
2022/02/04 06:48:42;;;;;;;9.40;7.00;;;5.70;99.90;;;6.54;100.00;-19949.56;5030560;28;20290;-67
2022/02/04 06:51:11;;;;;;;8.50;6.70;;;5.80;99.90;;;6.75;100.00;-19956.56;5031575;28;20248;-70
2022/02/04 06:53:38;;;;;;;7.97;6.30;;;5.80;99.90;;;6.65;100.00;-19953.16;5031922;28;20226;-69
2022/02/04 06:56:07;;;;;;;10.13;7.03;;;5.90;99.90;;;6.76;100.00;-19956.91;5031729;28;20214;-68
2022/02/04 06:58:35;;;;;;;9.47;6.63;;;5.90;99.90;;;6.72;100.00;-19955.72;5035669;28;20591;-67
2022/02/04 07:01:05;;;;;;;8.27;6.30;;;5.90;99.90;;;6.81;100.00;-19958.63;5037736;28;20337;-69
2022/02/04 07:03:34;;;;;;;8.50;7.37;;;5.90;99.90;;;6.95;100.00;-19963.56;5031961;28;20218;-70
2022/02/04 07:06:04;;;;;;;8.80;6.73;;;6.00;99.90;;;6.82;100.00;-19959.13;5031135;28;20595;-70
2022/02/04 07:08:47;;;;;;;9.30;7.13;;;6.00;99.90;;;6.79;100.00;-19958.13;5031280;28;20212;-67
2022/02/04 07:11:46;;;;;;;11.93;7.27;;;6.00;99.90;;;6.75;100.00;-19956.75;5032089;28;20201;-67
2022/02/04 07:14:22;;;;;;;9.47;7.60;;;6.00;99.90;;;6.91;100.00;-19962.22;5031864;28;20667;-68
2022/02/04 07:17:10;;;;;;;9.07;7.53;;;6.00;99.90;;;6.78;100.00;-19957.59;5031449;28;20732;-66
2022/02/04 07:19:47;;;;;;;8.87;7.60;;;6.00;99.90;;;6.87;100.00;-19960.84;5030592;28;20254;-70
2022/02/04 07:22:17;;;;;;;9.80;6.83;;;6.00;99.90;;;6.97;100.00;-19964.25;5031982;28;20225;-67
2022/02/04 07:24:46;;;;;;;9.40;8.00;;;6.00;99.90;;;6.83;100.00;-19959.31;5031780;28;20690;-68
2022/02/04 07:27:15;;;;;;;9.30;7.47;;;6.00;99.90;;;6.78;100.00;-19957.75;5035683;28;20663;-67
2022/02/04 07:29:46;;;;;;;9.27;6.83;;;6.10;99.90;;;6.79;100.00;-19957.94;5035907;28;20213;-67
2022/02/04 07:32:21;;;;;;;7.93;6.17;;;6.10;99.90;;;6.83;100.00;-19959.31;5036175;28;20189;-68
2022/02/04 07:35:13;;;;;;;7.67;6.30;;;6.10;99.90;;;6.93;100.00;-19962.72;5034799;28;20229;-69
2022/02/04 07:43:09;;;;;;;9.03;6.10;;;6.10;99.90;;;6.93;100.00;-19962.91;5015885;28;20246;-69
2022/02/04 07:45:38;;;;;;;6.20;5.53;;;6.10;99.90;;;6.96;100.00;-19963.75;5015308;28;20492;-69
2022/02/04 07:48:08;;;;;;;7.83;6.00;;;6.10;99.90;;;7.06;100.00;-19967.16;5015713;28;20281;-70
2022/02/04 07:50:36;;;;;;;8.00;5.97;;;6.10;99.90;;;7.15;100.00;-19970.25;5015024;28;20238;-69
2022/02/04 07:53:04;;;;;;;6.80;5.67;;;6.20;99.90;;;7.15;100.00;-19970.41;5016168;28;20211;-69
2022/02/04 07:55:32;;;;;;;6.37;5.57;;;6.20;99.90;;;7.13;100.00;-19969.72;5040588;28;20241;-67
2022/02/04 07:58:00;;;;;;;7.17;5.43;;;6.20;99.90;;;7.13;100.00;-19969.56;5045464;28;20226;-72
2022/02/04 08:00:29;;;;;;;6.80;5.20;;;6.20;99.90;;;7.15;100.00;-19970.41;5033697;28;20250;-68
2022/02/04 08:03:03;;;;;;;7.83;5.60;;;6.20;99.90;;;7.04;100.00;-19966.47;5033146;28;20225;-66
2022/02/04 08:05:32;;;;;;;7.60;4.77;;;6.30;99.90;;;7.07;100.00;-19967.50;5033329;28;20189;-64
2022/02/04 08:08:13;;;;;;;7.00;4.93;;;6.30;99.90;;;7.06;100.00;-19967.34;5033108;28;20271;-64
2022/02/04 08:10:47;;;;;;;6.90;4.70;;;6.30;99.90;;;7.36;100.00;-19977.41;5032887;28;20760;-63
2022/02/04 08:13:47;;;;;;;5.60;5.00;;;6.40;99.90;;;7.25;100.00;-19973.84;5033122;28;20317;-63
2022/02/04 08:19:35;;;;;;;7.83;6.83;;;6.40;99.90;;;7.34;100.00;-19976.72;5004383;28;20322;-65
2022/02/04 08:25:04;;;;;;;6.20;5.10;;;6.50;99.90;;;7.40;100.00;-19978.78;5003885;28;20530;-64
2022/02/04 08:27:58;;;;;;;4.50;3.60;;;6.60;99.90;;;7.38;100.00;-19978.28;5012895;28;20878;-64
2022/02/04 08:36:26;;;;;;;4.53;3.60;;;6.60;99.90;;;7.49;100.00;-19981.88;4962550;28;20278;-68
2022/02/04 08:39:32;;;;;;;3.83;3.30;;;6.60;99.90;;;7.72;100.00;-19989.72;5018571;28;20308;-69
2022/02/04 08:50:39;;;;;;;3.10;2.80;;;6.90;99.90;;;8.22;100.00;-20006.81;4990463;28;20255;-69
2022/02/04 08:53:31;;;;;;;3.20;2.90;;;7.00;99.90;;;8.20;100.00;-20006.13;4990036;28;20223;-69
2022/02/04 08:56:00;;;;;;;2.73;2.53;;;7.10;99.90;;;8.37;100.00;-20011.78;5005721;28;20251;-68
2022/02/04 08:58:33;;;;;;;3.13;2.80;;;7.20;99.90;;;8.50;100.00;-20016.38;5026698;28;20260;-67
2022/02/04 09:01:06;;;;;;;3.20;2.83;;;7.30;99.90;;;8.67;100.00;-20022.03;5030683;28;20226;-69
2022/02/04 09:03:49;;;;;;;3.20;2.70;;;7.40;99.90;;;8.56;100.00;-20018.25;5031115;28;20234;-69
2022/02/04 09:06:24;;;;;;;3.30;2.50;;;7.40;99.90;;;8.64;100.00;-20021.00;5032238;28;20226;-68
2022/02/04 09:08:56;;;;;;;3.33;2.57;;;7.50;99.90;;;8.74;100.00;-20024.25;5032187;28;20193;-69
2022/02/04 09:11:40;;;;;;;3.13;2.83;;;7.60;99.90;;;8.79;100.00;-20026.13;5032742;28;20191;-68
2022/02/04 09:17:26;;;;;;;2.67;2.20;;;7.70;99.90;;;8.88;100.00;-20029.03;5012001;28;20518;-70
2022/02/04 09:20:01;;;;;;;2.40;2.20;;;7.70;99.90;;;8.81;100.00;-20026.81;5031392;28;20229;-69
2022/02/04 09:22:43;;;;;;;3.10;2.40;;;7.70;99.90;;;9.08;100.00;-20035.84;5031811;28;20265;-71
2022/02/04 09:25:12;;;;;;;3.30;2.80;;;7.90;99.90;;;9.31;100.00;-20043.72;5031781;28;20745;-69
2022/02/04 09:27:42;;;;;;;3.00;2.70;;;8.10;99.90;;;9.58;100.00;-20053.13;5031490;28;20321;-68
2022/02/04 09:30:14;;;;;;;4.33;2.70;;;8.30;99.90;;;9.59;100.00;-20053.28;5031689;28;20300;-68
2022/02/04 09:32:42;;;;;;;2.73;2.53;;;8.40;99.90;;;9.60;100.00;-20053.78;5031565;28;20185;-70
2022/02/04 09:35:15;;;;;;;2.90;2.60;;;8.40;99.90;;;9.41;100.00;-20047.31;5032349;28;20285;-69
2022/02/04 09:37:46;;;;;;;3.10;2.80;;;8.30;99.90;;;9.56;100.00;-20052.44;5031737;28;20304;-68
2022/02/04 09:40:16;;;;;;;2.97;2.60;;;8.40;99.90;;;9.35;100.00;-20045.25;5031633;28;20257;-68
2022/02/04 09:42:47;;;;;;;2.70;2.50;;;8.30;99.90;;;9.55;100.00;-20052.09;5031524;28;20249;-68
2022/02/04 09:45:20;;;;;;;3.17;2.70;;;8.30;99.90;;;9.77;100.00;-20059.44;5031429;28;20225;-68
2022/02/04 09:47:57;;;;;;;3.00;2.57;;;8.50;99.90;;;9.45;100.00;-20048.66;5038876;28;20251;-68
2022/02/04 09:50:28;;;;;;;2.57;2.20;;;8.40;99.90;;;9.32;100.00;-20044.22;5052203;28;20185;-67
2022/02/04 10:04:53;;;;;;;3.07;2.77;;;7.90;99.90;;;8.83;100.00;-20027.31;5030922;28;20230;-70
2022/02/04 10:10:35;;;;;;;3.80;3.40;;;8.00;99.90;;;9.21;100.00;-20040.31;5028380;28;20226;-66
2022/02/04 10:16:17;;;;;;;2.87;2.67;;;8.20;99.90;;;9.48;100.00;-20049.69;5011181;28;20230;-66
2022/02/04 10:18:50;;;;;;;3.73;3.13;;;8.30;99.90;;;9.60;100.00;-20053.63;5017049;28;20306;-66
2022/02/04 10:21:19;;;;;;;2.87;2.60;;;8.40;99.90;;;9.58;100.00;-20053.13;5010971;28;20676;-66
2022/02/04 10:23:51;;;;;;;2.90;2.60;;;8.50;99.90;;;9.71;100.00;-20057.38;5011105;28;20231;-65
2022/02/04 10:26:20;;;;;;;4.13;2.90;;;8.50;99.90;;;9.73;100.00;-20058.25;5011136;28;20238;-62
2022/02/04 10:28:49;;;;;;;3.60;2.80;;;8.50;99.90;;;9.96;100.00;-20065.75;5010859;28;20230;-63
2022/02/04 10:31:22;;;;;;;2.93;2.67;;;8.70;99.90;;;10.03;100.00;-20068.31;5011206;28;20752;-61
2022/02/04 10:34:00;;;;;;;2.97;2.33;;;8.70;99.90;;;9.81;100.00;-20060.78;5002749;28;20289;-62
2022/02/04 10:36:52;;;;;;;2.33;2.13;;;8.70;99.90;;;9.61;100.00;-20053.97;4991196;28;20231;-62
2022/02/04 10:39:45;;;;;;;3.03;2.20;;;8.60;99.90;;;9.49;100.00;-20049.88;4990701;28;20233;-68
2022/02/04 10:42:24;;;;;;;2.57;1.97;;;8.50;99.90;;;9.43;100.00;-20047.81;5015922;28;20324;-70
2022/02/04 10:45:20;;;;;;;2.43;2.23;;;8.40;99.90;;;9.44;100.00;-20048.16;5044862;28;20730;-67
2022/02/04 10:53:51;;;;;;;2.57;2.23;;;8.60;99.90;;;9.99;100.00;-20066.94;5030869;28;20190;-71
2022/02/04 11:04:43;;;;;;;2.30;2.10;;;8.60;99.90;;;9.62;100.00;-20054.47;5031522;28;20249;-72
2022/02/04 11:07:28;;;;;;;2.47;2.27;;;8.60;99.90;;;9.70;100.00;-20057.03;5034279;28;20653;-72
2022/02/04 11:10:10;;;;;;;2.50;2.30;;;8.50;99.90;;;9.47;100.00;-20049.34;5034030;28;20629;-69
2022/02/04 11:35:32;;;;;;;2.03;1.80;;;8.70;99.90;;;9.40;100.00;-20046.97;5088054;27;21108;-71
2022/02/04 11:47:52;;;;;;;1.93;1.80;;;8.40;99.90;;;9.26;100.00;-20042.19;5083961;28;20308;-71
2022/02/04 11:52:40;;;;;;;2.40;1.80;;;8.40;99.90;;;9.67;100.00;-20056.19;5068127;28;20235;-70
2022/02/04 11:55:33;;;;;;;1.77;1.67;;;8.50;99.90;;;9.95;100.00;-20065.41;5067745;28;20247;-70
2022/02/04 11:58:05;;;;;;;1.20;1.10;;;8.60;99.90;;;9.96;100.00;-20065.75;5067586;28;20232;-70
2022/02/04 12:00:40;;;;;;;1.60;1.50;;;8.70;99.90;;;10.17;100.00;-20073.09;5067352;28;20719;-70
2022/02/04 12:03:35;;;;;;;1.57;1.43;;;8.80;99.90;;;10.33;100.00;-20078.56;5066605;28;20316;-63
2022/02/04 12:06:04;;;;;;;2.20;1.30;;;8.90;99.90;;;10.39;100.00;-20080.44;5067549;28;20304;-62
2022/02/04 12:08:34;;;;;;;1.97;1.40;;;9.10;99.90;;;10.49;100.00;-20083.84;5067982;28;20699;-63
2022/02/04 12:11:11;;;;;;;1.60;1.50;;;9.10;99.90;;;10.34;100.00;-20078.75;5067475;28;20295;-63
2022/02/04 12:14:11;;;;;;;1.90;1.20;;;9.20;99.90;;;10.34;100.00;-20078.91;5067107;28;20312;-68
2022/02/04 12:17:03;;;;;;;1.20;1.10;;;9.20;99.90;;;9.93;100.00;-20064.72;5067184;28;20224;-66
2022/02/04 12:19:41;;;;;;;2.37;1.40;;;9.00;99.90;;;9.75;100.00;-20058.91;5046694;28;20731;-67
2022/02/04 12:22:11;;;;;;;3.40;1.67;;;8.90;99.90;;;9.66;100.00;-20055.84;5047130;28;20600;-66
2022/02/04 12:24:46;;;;;;;1.63;1.50;;;8.80;99.90;;;9.68;100.00;-20056.53;5046767;28;20332;-66
2022/02/04 12:27:31;;;;;;;1.30;1.20;;;8.70;99.90;;;9.45;100.00;-20048.50;5047202;28;20229;-71
2022/02/04 12:30:01;;;;;;;1.30;1.00;;;8.50;99.90;;;9.50;100.00;-20050.22;5046825;28;20726;-76
2022/02/04 12:32:30;;;;;;;1.33;1.23;;;8.50;99.90;;;9.33;100.00;-20044.56;5053034;28;20629;-72
2022/02/04 12:34:58;;;;;;;0.90;0.90;;;8.40;99.90;;;9.27;100.00;-20042.34;5066470;28;20313;-73
2022/02/04 12:37:26;;;;;;;1.33;1.23;;;8.40;99.90;;;9.37;100.00;-20045.94;5066597;28;20225;-77
2022/02/04 12:39:56;;;;;;;4.93;1.80;;;8.40;99.90;;;9.41;100.00;-20047.31;5066171;28;20291;-72
2022/02/04 12:42:26;;;;;;;1.40;1.30;;;8.40;99.90;;;9.64;100.00;-20055.16;5066626;28;20228;-69
2022/02/04 12:44:56;;;;;;;1.20;1.10;;;8.50;99.90;;;9.57;100.00;-20052.78;5063783;28;20233;-68
2022/02/04 12:47:33;;;;;;;32.57;24.33;;;8.50;99.90;;;9.71;100.00;-20057.38;5054230;28;20186;-71
2022/02/04 12:50:07;;;;;;;2.17;1.17;;;8.60;99.90;;;9.64;100.00;-20055.00;5033346;28;20248;-70
2022/02/04 12:52:43;;;;;;;1.10;1.00;;;8.70;99.90;;;9.81;100.00;-20060.78;5050063;28;20304;-69
2022/02/04 12:55:23;;;;;;;0.83;0.83;;;8.70;99.90;;;9.81;100.00;-20060.97;5052697;28;20228;-68
2022/02/04 12:58:12;;;;;;;0.90;0.80;;;8.70;99.90;;;9.91;100.00;-20064.22;5053123;28;20248;-66
2022/02/04 13:07:30;;;;;;;0.80;0.80;;;8.80;99.90;;;9.94;100.00;-20065.06;5053128;28;20290;-68
2022/02/04 13:12:19;;;;;;;0.97;0.63;;;8.90;99.90;;;10.06;100.00;-20069.34;5052683;28;20724;-70
2022/02/04 13:14:50;;;;;;;1.03;0.70;;;9.00;99.90;;;10.25;100.00;-20075.66;5052567;28;20241;-68
2022/02/04 13:17:36;;;;;;;0.80;0.80;;;9.10;99.90;;;10.43;100.00;-20081.81;5052707;28;20186;-66
2022/02/04 13:20:06;;;;;;;1.47;1.37;;;9.20;99.90;;;10.38;100.00;-20080.09;5068087;28;20228;-65
2022/02/04 13:22:38;;;;;;;1.20;0.90;;;9.20;99.90;;;10.19;100.00;-20073.63;5072637;28;20644;-65
2022/02/04 13:25:17;;;;;;;1.10;1.10;;;9.20;99.90;;;10.25;100.00;-20075.66;5072467;28;20665;-64
2022/02/04 13:28:09;;;;;;;3.10;2.77;;;9.20;99.90;;;10.00;100.00;-20067.13;5072706;28;20645;-64
2022/02/04 13:30:41;;;;;;;1.10;1.00;;;9.10;99.90;;;10.02;100.00;-20067.81;5032528;28;20249;-65
2022/02/04 13:33:20;;;;;;;1.30;1.20;;;9.10;99.90;;;10.03;100.00;-20068.16;5043114;28;20712;-65
2022/02/04 13:36:02;;;;;;;2.83;1.07;;;9.10;99.90;;;10.13;100.00;-20071.72;5052000;28;20613;-67
2022/02/04 13:38:40;;;;;;;1.27;1.17;;;9.10;99.90;;;10.00;100.00;-20067.13;5052667;28;20725;-66
2022/02/04 13:41:19;;;;;;;1.57;1.17;;;9.10;99.90;;;10.20;100.00;-20074.13;5051718;28;20278;-66
2022/02/04 13:44:12;;;;;;;0.77;0.77;;;9.10;99.90;;;10.34;100.00;-20078.75;5052038;28;20253;-68
2022/02/04 13:46:47;;;;;;;0.80;0.80;;;9.20;99.90;;;10.35;100.00;-20079.25;5052173;28;20236;-72
2022/02/04 13:49:32;;;;;;;1.03;0.80;;;9.20;99.90;;;10.42;99.91;-20081.63;5052235;28;20233;-72
2022/02/04 13:52:04;;;;;;;0.93;0.87;;;9.30;99.90;;;10.16;100.00;-20072.59;5052046;28;20645;-74
2022/02/04 13:54:53;;;;;;;0.77;0.77;;;9.20;99.90;;;10.08;100.00;-20069.84;5052165;28;20312;-73
2022/02/04 13:57:36;;;;;;;1.10;1.00;;;9.20;99.90;;;9.93;100.00;-20064.91;5051058;28;20635;-74
2022/02/04 14:00:26;;;;;;;0.90;0.90;;;9.10;99.90;;;9.95;100.00;-20065.41;5051852;28;20221;-71
2022/02/04 14:03:12;;;;;;;1.13;0.90;;;9.00;99.90;;;9.92;100.00;-20064.38;5051735;28;20309;-63
2022/02/04 14:05:50;;;;;;;0.90;0.90;;;9.00;99.90;;;9.92;100.00;-20064.38;5051707;28;20656;-66
2022/02/04 14:08:29;;;;;;;0.90;0.90;;;9.00;99.90;;;10.09;100.00;-20070.19;5052540;28;20272;-65
2022/02/04 14:11:00;;;;;;;1.30;1.20;;;9.00;99.90;;;9.69;100.00;-20056.88;5051926;28;20312;-64
2022/02/04 14:13:30;;;;;;;1.97;0.93;;;8.80;99.90;;;9.80;100.00;-20060.47;5051581;28;20228;-67
2022/02/04 14:16:05;;;;;;;1.10;1.07;;;8.80;99.90;;;9.71;100.00;-20057.38;5051699;28;20308;-67
2022/02/04 14:18:37;;;;;;;1.10;1.00;;;8.70;99.90;;;9.65;100.00;-20055.34;5051879;28;20251;-77
2022/02/04 14:21:09;;;;;;;2.10;1.30;;;8.70;99.90;;;9.56;100.00;-20052.44;5051612;28;20760;-77
2022/02/04 14:23:37;;;;;;;1.87;1.10;;;8.60;99.90;;;9.67;100.00;-20056.19;5052452;28;20186;-75
2022/02/04 14:26:10;;;;;;;1.10;0.80;;;8.60;99.90;;;9.51;100.00;-20050.72;5052160;28;20292;-63
2022/02/04 14:28:45;;;;;;;1.53;0.90;;;8.60;99.90;;;9.51;100.00;-20050.72;5055557;28;20641;-65
2022/02/04 14:31:20;;;;;;;0.70;0.70;;;8.50;99.90;;;9.40;100.00;-20046.78;5071230;28;20220;-62
2022/02/04 14:36:50;;;;;;;0.93;0.80;;;8.50;99.90;;;9.30;100.00;-20043.38;5029550;28;20228;-72
2022/02/04 14:53:22;;;;;;;0.70;0.70;;;8.80;99.90;;;9.72;100.00;-20057.72;5051194;28;20306;-71